createdAt,value
2018-04-14T00:00:19.367Z,1005.79
2018-04-14T00:01:19.336Z,1005.79
2018-04-14T00:02:19.322Z,1005.79
2018-04-14T00:03:19.310Z,1005.81
2018-04-14T00:04:19.298Z,1005.80
2018-04-14T00:05:19.286Z,1005.85
2018-04-14T00:06:19.287Z,1005.83
2018-04-14T00:07:19.260Z,1005.84
2018-04-14T00:08:19.248Z,1005.87
2018-04-14T00:09:19.234Z,1005.88
2018-04-14T00:10:19.224Z,1005.84
2018-04-14T00:11:19.259Z,1005.88
2018-04-14T00:12:19.210Z,1005.89
2018-04-14T00:13:19.185Z,1005.89
2018-04-14T00:14:19.170Z,1005.88
2018-04-14T00:15:19.160Z,1005.90
2018-04-14T00:16:19.146Z,1005.96
2018-04-14T00:17:19.134Z,1005.94
2018-04-14T00:18:19.135Z,1005.94
2018-04-14T00:19:19.107Z,1005.95
2018-04-14T00:20:19.096Z,1005.95
2018-04-14T00:21:19.083Z,1006.00
2018-04-14T00:22:19.069Z,1005.98
2018-04-14T00:23:19.057Z,1006.01
2018-04-14T00:24:19.059Z,1006.01
2018-04-14T00:25:19.032Z,1006.01
2018-04-14T00:26:19.023Z,1006.00
2018-04-14T00:27:19.006Z,1006.04
2018-04-14T00:28:18.995Z,1006.01
2018-04-14T00:29:18.981Z,1006.02
2018-04-14T00:30:18.990Z,1006.00
2018-04-14T00:31:18.957Z,1006.03
2018-04-14T00:32:18.944Z,1006.02
2018-04-14T00:33:18.935Z,1006.06
2018-04-14T00:34:18.917Z,1006.03
2018-04-14T00:35:18.905Z,1006.03
2018-04-14T00:36:18.910Z,1006.06
2018-04-14T00:37:18.879Z,1006.02
2018-04-14T00:38:18.867Z,1006.04
2018-04-14T00:39:18.854Z,1006.05
2018-04-14T00:40:18.840Z,1006.03
2018-04-14T00:41:18.829Z,1006.07
2018-04-14T00:42:18.835Z,1006.05
2018-04-14T00:43:18.848Z,1006.09
2018-04-14T00:44:18.791Z,1006.12
2018-04-14T00:45:18.776Z,1006.08
2018-04-14T00:46:18.767Z,1006.14
2018-04-14T00:47:18.754Z,1006.09
2018-04-14T00:48:18.762Z,1006.09
2018-04-14T00:49:18.729Z,1006.05
2018-04-14T00:50:18.715Z,1006.07
2018-04-14T00:51:18.702Z,1006.06
2018-04-14T00:52:18.689Z,1006.05
2018-04-14T00:53:18.676Z,1006.04
2018-04-14T00:54:18.679Z,1006.10
2018-04-14T00:55:18.653Z,1006.08
2018-04-14T00:56:18.642Z,1006.02
2018-04-14T00:57:18.626Z,1006.05
2018-04-14T00:58:18.613Z,1006.04
2018-04-14T00:59:18.601Z,1006.07
2018-04-14T01:00:18.602Z,1006.07
2018-04-14T01:01:18.576Z,1006.10
2018-04-14T01:02:18.563Z,1006.08
2018-04-14T01:03:18.551Z,1006.13
2018-04-14T01:04:18.538Z,1006.11
2018-04-14T01:05:18.525Z,1006.13
2018-04-14T01:06:18.534Z,1006.12
2018-04-14T01:07:18.504Z,1006.11
2018-04-14T01:08:18.488Z,1006.11
2018-04-14T01:09:18.475Z,1006.11
2018-04-14T01:10:18.462Z,1006.13
2018-04-14T01:11:18.449Z,1006.14
2018-04-14T01:12:18.453Z,1006.17
2018-04-14T01:13:18.427Z,1006.14
2018-04-14T01:14:18.417Z,1006.15
2018-04-14T01:15:18.398Z,1006.14
2018-04-14T01:16:18.388Z,1006.15
2018-04-14T01:17:18.372Z,1006.12
2018-04-14T01:18:18.380Z,1006.12
2018-04-14T01:19:18.351Z,1006.15
2018-04-14T01:20:18.336Z,1006.14
2018-04-14T01:21:18.324Z,1006.12
2018-04-14T01:22:18.311Z,1006.15
2018-04-14T01:23:18.298Z,1006.15
2018-04-14T01:24:18.307Z,1006.17
2018-04-14T01:25:18.274Z,1006.16
2018-04-14T01:26:18.264Z,1006.20
2018-04-14T01:27:18.248Z,1006.17
2018-04-14T01:28:18.236Z,1006.19
2018-04-14T01:29:18.222Z,1006.20
2018-04-14T01:30:18.225Z,1006.16
2018-04-14T01:31:18.198Z,1006.16
2018-04-14T01:32:18.184Z,1006.15
2018-04-14T01:33:18.171Z,1006.16
2018-04-14T01:34:18.159Z,1006.15
2018-04-14T01:35:18.148Z,1006.18
2018-04-14T01:36:18.151Z,1006.18
2018-04-14T01:37:18.121Z,1006.17
2018-04-14T01:38:18.108Z,1006.18
2018-04-14T01:39:18.094Z,1006.19
2018-04-14T01:40:18.083Z,1006.19
2018-04-14T01:41:18.070Z,1006.24
2018-04-14T01:42:18.077Z,1006.25
2018-04-14T01:43:18.044Z,1006.29
2018-04-14T01:44:18.035Z,1006.25
2018-04-14T01:45:18.020Z,1006.27
2018-04-14T01:46:18.006Z,1006.26
2018-04-14T01:47:17.992Z,1006.23
2018-04-14T01:48:17.998Z,1006.24
2018-04-14T01:49:17.968Z,1006.28
2018-04-14T01:50:17.957Z,1006.25
2018-04-14T01:51:17.946Z,1006.21
2018-04-14T01:52:17.930Z,1006.21
2018-04-14T01:53:17.919Z,1006.24
2018-04-14T01:54:17.921Z,1006.21
2018-04-14T01:55:17.894Z,1006.22
2018-04-14T01:56:17.879Z,1006.21
2018-04-14T01:57:17.868Z,1006.24
2018-04-14T01:58:17.855Z,1006.26
2018-04-14T01:59:17.843Z,1006.26
2018-04-14T02:00:17.843Z,1006.29
2018-04-14T02:01:17.817Z,1006.32
2018-04-14T02:02:17.803Z,1006.32
2018-04-14T02:03:17.790Z,1006.29
2018-04-14T02:04:17.783Z,1006.34
2018-04-14T02:05:17.765Z,1006.31
2018-04-14T02:06:17.776Z,1006.33
2018-04-14T02:07:17.742Z,1006.30
2018-04-14T02:08:17.731Z,1006.35
2018-04-14T02:09:17.716Z,1006.32
2018-04-14T02:10:17.703Z,1006.30
2018-04-14T02:11:17.691Z,1006.31
2018-04-14T02:12:17.694Z,1006.34
2018-04-14T02:13:17.665Z,1006.31
2018-04-14T02:14:17.652Z,1006.34
2018-04-14T02:15:17.639Z,1006.33
2018-04-14T02:16:17.629Z,1006.31
2018-04-14T02:17:17.615Z,1006.30
2018-04-14T02:18:17.618Z,1006.28
2018-04-14T02:19:17.594Z,1006.27
2018-04-14T02:20:17.577Z,1006.31
2018-04-14T02:21:17.563Z,1006.32
2018-04-14T02:22:17.550Z,1006.35
2018-04-14T02:23:17.541Z,1006.31
2018-04-14T02:24:17.543Z,1006.35
2018-04-14T02:25:17.514Z,1006.36
2018-04-14T02:26:17.499Z,1006.38
2018-04-14T02:27:17.488Z,1006.36
2018-04-14T02:28:17.475Z,1006.38
2018-04-14T02:29:17.502Z,1006.38
2018-04-14T02:30:17.468Z,1006.40
2018-04-14T02:31:17.438Z,1006.41
2018-04-14T02:32:17.427Z,1006.41
2018-04-14T02:33:17.414Z,1006.38
2018-04-14T02:34:17.402Z,1006.37
2018-04-14T02:35:17.388Z,1006.38
2018-04-14T02:36:17.389Z,1006.37
2018-04-14T02:37:17.361Z,1006.39
2018-04-14T02:38:17.349Z,1006.38
2018-04-14T02:39:17.383Z,1006.37
2018-04-14T02:40:17.322Z,1006.39
2018-04-14T02:41:17.311Z,1006.42
2018-04-14T02:42:17.314Z,1006.44
2018-04-14T02:43:17.286Z,1006.44
2018-04-14T02:44:17.274Z,1006.42
2018-04-14T02:45:17.268Z,1006.45
2018-04-14T02:46:17.248Z,1006.43
2018-04-14T02:47:17.240Z,1006.42
2018-04-14T02:48:17.238Z,1006.44
2018-04-14T02:49:17.211Z,1006.47
2018-04-14T02:50:17.198Z,1006.49
2018-04-14T02:51:17.186Z,1006.51
2018-04-14T02:52:17.195Z,1006.50
2018-04-14T02:53:17.173Z,1006.51
2018-04-14T02:54:17.164Z,1006.48
2018-04-14T02:55:17.137Z,1006.47
2018-04-14T02:56:17.121Z,1006.51
2018-04-14T02:57:17.108Z,1006.44
2018-04-14T02:58:17.096Z,1006.48
2018-04-14T02:59:17.085Z,1006.41
2018-04-14T03:00:17.088Z,1006.46
2018-04-14T03:01:17.060Z,1006.47
2018-04-14T03:02:17.046Z,1006.50
2018-04-14T03:03:17.033Z,1006.51
2018-04-14T03:04:17.021Z,1006.51
2018-04-14T03:05:17.008Z,1006.49
2018-04-14T03:06:17.012Z,1006.51
2018-04-14T03:07:16.987Z,1006.50
2018-04-14T03:08:16.972Z,1006.54
2018-04-14T03:09:16.959Z,1006.56
2018-04-14T03:10:16.987Z,1006.55
2018-04-14T03:11:16.933Z,1006.54
2018-04-14T03:12:16.939Z,1006.58
2018-04-14T03:13:16.908Z,1006.59
2018-04-14T03:14:16.893Z,1006.59
2018-04-14T03:15:16.886Z,1006.61
2018-04-14T03:16:16.869Z,1006.63
2018-04-14T03:17:16.857Z,1006.60
2018-04-14T03:18:16.860Z,1006.59
2018-04-14T03:19:16.829Z,1006.59
2018-04-14T03:20:16.819Z,1006.63
2018-04-14T03:21:16.806Z,1006.59
2018-04-14T03:22:16.793Z,1006.61
2018-04-14T03:23:16.828Z,1006.61
2018-04-14T03:24:16.791Z,1006.58
2018-04-14T03:25:16.760Z,1006.60
2018-04-14T03:26:16.743Z,1006.64
2018-04-14T03:27:16.729Z,1006.65
2018-04-14T03:28:16.716Z,1006.62
2018-04-14T03:29:16.705Z,1006.67
2018-04-14T03:30:16.707Z,1006.69
2018-04-14T03:31:16.683Z,1006.71
2018-04-14T03:32:16.668Z,1006.73
2018-04-14T03:33:16.654Z,1006.72
2018-04-14T03:34:16.640Z,1006.72
2018-04-14T03:35:16.628Z,1006.74
2018-04-14T03:36:16.633Z,1006.74
2018-04-14T03:37:16.604Z,1006.70
2018-04-14T03:38:16.592Z,1006.73
2018-04-14T03:39:16.578Z,1006.69
2018-04-14T03:40:16.564Z,1006.68
2018-04-14T03:41:16.552Z,1006.73
2018-04-14T03:42:16.561Z,1006.71
2018-04-14T03:43:16.530Z,1006.75
2018-04-14T03:44:16.514Z,1006.72
2018-04-14T03:45:16.502Z,1006.76
2018-04-14T03:46:16.488Z,1006.76
2018-04-14T03:47:16.476Z,1006.75
2018-04-14T03:48:16.486Z,1006.75
2018-04-14T03:49:16.451Z,1006.76
2018-04-14T03:50:16.438Z,1006.75
2018-04-14T03:51:16.427Z,1006.74
2018-04-14T03:52:16.412Z,1006.77
2018-04-14T03:53:16.401Z,1006.76
2018-04-14T03:54:16.405Z,1006.78
2018-04-14T03:55:16.375Z,1006.82
2018-04-14T03:56:16.363Z,1006.85
2018-04-14T03:57:16.351Z,1006.87
2018-04-14T03:58:16.337Z,1006.90
2018-04-14T03:59:16.323Z,1006.91
2018-04-14T04:00:16.336Z,1006.89
2018-04-14T04:01:16.301Z,1006.91
2018-04-14T04:02:16.287Z,1006.90
2018-04-14T04:03:16.276Z,1006.92
2018-04-14T04:04:16.261Z,1006.95
2018-04-14T04:05:16.249Z,1006.95
2018-04-14T04:06:16.251Z,1006.97
2018-04-14T04:07:16.224Z,1006.96
2018-04-14T04:08:16.212Z,1006.96
2018-04-14T04:09:16.200Z,1007.00
2018-04-14T04:10:16.185Z,1007.03
2018-04-14T04:11:16.174Z,1007.01
2018-04-14T04:12:16.181Z,1007.06
2018-04-14T04:13:16.148Z,1007.02
2018-04-14T04:14:16.135Z,1007.03
2018-04-14T04:15:16.121Z,1007.01
2018-04-14T04:16:16.110Z,1007.05
2018-04-14T04:17:16.097Z,1007.09
2018-04-14T04:18:16.102Z,1007.08
2018-04-14T04:19:16.071Z,1007.11
2018-04-14T04:20:16.060Z,1007.14
2018-04-14T04:21:16.047Z,1007.16
2018-04-14T04:22:16.035Z,1007.17
2018-04-14T04:23:16.022Z,1007.14
2018-04-14T04:24:16.279Z,1007.19
2018-04-14T04:25:15.994Z,1007.16
2018-04-14T04:26:15.984Z,1007.18
2018-04-14T04:27:15.969Z,1007.15
2018-04-14T04:28:15.989Z,1007.16
2018-04-14T04:29:15.945Z,1007.15
2018-04-14T04:30:15.951Z,1007.14
2018-04-14T04:31:15.922Z,1007.15
2018-04-14T04:32:15.908Z,1007.15
2018-04-14T04:33:15.897Z,1007.13
2018-04-14T04:34:15.881Z,1007.18
2018-04-14T04:35:15.873Z,1007.19
2018-04-14T04:36:15.873Z,1007.25
2018-04-14T04:37:15.841Z,1007.27
2018-04-14T04:38:15.828Z,1007.29
2018-04-14T04:39:15.817Z,1007.31
2018-04-14T04:40:15.804Z,1007.33
2018-04-14T04:41:15.792Z,1007.38
2018-04-14T04:42:15.797Z,1007.35
2018-04-14T04:43:15.766Z,1007.36
2018-04-14T04:44:15.753Z,1007.37
2018-04-14T04:45:15.742Z,1007.40
2018-04-14T04:46:15.726Z,1007.39
2018-04-14T04:47:15.714Z,1007.45
2018-04-14T04:48:15.720Z,1007.46
2018-04-14T04:49:15.688Z,1007.46
2018-04-14T04:50:15.676Z,1007.48
2018-04-14T04:51:15.664Z,1007.53
2018-04-14T04:52:15.651Z,1007.54
2018-04-14T04:53:15.637Z,1007.52
2018-04-14T04:54:15.643Z,1007.57
2018-04-14T04:55:15.610Z,1007.53
2018-04-14T04:56:15.601Z,1007.57
2018-04-14T04:57:15.588Z,1007.59
2018-04-14T04:58:15.575Z,1007.60
2018-04-14T04:59:15.560Z,1007.57
2018-04-14T05:00:15.581Z,1007.58
2018-04-14T05:01:15.539Z,1007.59
2018-04-14T05:02:15.525Z,1007.65
2018-04-14T05:03:15.511Z,1007.65
2018-04-14T05:04:15.495Z,1007.67
2018-04-14T05:05:15.484Z,1007.67
2018-04-14T05:06:15.505Z,1007.70
2018-04-14T05:07:15.458Z,1007.72
2018-04-14T05:08:15.449Z,1007.71
2018-04-14T05:09:15.431Z,1007.71
2018-04-14T05:10:15.421Z,1007.71
2018-04-14T05:11:15.408Z,1007.74
2018-04-14T05:12:15.427Z,1007.74
2018-04-14T05:13:15.381Z,1007.81
2018-04-14T05:14:15.367Z,1007.79
2018-04-14T05:15:15.354Z,1007.82
2018-04-14T05:16:15.341Z,1007.80
2018-04-14T05:17:15.330Z,1007.78
2018-04-14T05:18:15.355Z,1007.83
2018-04-14T05:19:15.304Z,1007.86
2018-04-14T05:20:15.294Z,1007.86
2018-04-14T05:21:15.279Z,1007.89
2018-04-14T05:22:15.265Z,1007.88
2018-04-14T05:23:15.252Z,1007.91
2018-04-14T05:24:15.317Z,1007.89
2018-04-14T05:25:15.227Z,1007.97
2018-04-14T05:26:15.215Z,1007.93
2018-04-14T05:27:15.201Z,1007.94
2018-04-14T05:28:15.193Z,1007.92
2018-04-14T05:29:15.176Z,1007.94
2018-04-14T05:30:15.178Z,1007.92
2018-04-14T05:31:15.154Z,1007.94
2018-04-14T05:32:15.143Z,1007.93
2018-04-14T05:33:15.125Z,1007.95
2018-04-14T05:34:15.112Z,1007.94
2018-04-14T05:35:15.099Z,1007.96
2018-04-14T05:36:15.360Z,1007.97
2018-04-14T05:37:15.072Z,1008.00
2018-04-14T05:38:15.061Z,1008.00
2018-04-14T05:39:15.045Z,1008.01
2018-04-14T05:40:15.034Z,1008.03
2018-04-14T05:41:15.021Z,1008.05
2018-04-14T05:42:15.276Z,1008.08
2018-04-14T05:43:14.994Z,1008.09
2018-04-14T05:44:14.983Z,1008.06
2018-04-14T05:45:14.970Z,1008.12
2018-04-14T05:46:14.957Z,1008.13
2018-04-14T05:47:14.946Z,1008.13
2018-04-14T05:48:14.950Z,1008.15
2018-04-14T05:49:14.917Z,1008.19
2018-04-14T05:50:14.921Z,1008.24
2018-04-14T05:51:14.893Z,1008.20
2018-04-14T05:52:14.881Z,1008.21
2018-04-14T05:53:14.866Z,1008.25
2018-04-14T05:54:14.874Z,1008.24
2018-04-14T05:55:14.840Z,1008.28
2018-04-14T05:56:14.830Z,1008.25
2018-04-14T05:57:14.817Z,1008.19
2018-04-14T05:58:14.802Z,1008.24
2018-04-14T05:59:14.790Z,1008.23
2018-04-14T06:00:14.808Z,1008.18
2018-04-14T06:01:14.764Z,1008.24
2018-04-14T06:02:14.751Z,1008.21
2018-04-14T06:03:14.738Z,1008.21
2018-04-14T06:04:14.724Z,1008.24
2018-04-14T06:05:14.711Z,1008.26
2018-04-14T06:06:14.715Z,1008.28
2018-04-14T06:07:14.686Z,1008.30
2018-04-14T06:08:14.673Z,1008.34
2018-04-14T06:09:14.678Z,1008.38
2018-04-14T06:10:14.646Z,1008.35
2018-04-14T06:11:14.635Z,1008.36
2018-04-14T06:12:14.633Z,1008.35
2018-04-14T06:13:14.611Z,1008.33
2018-04-14T06:14:14.598Z,1008.34
2018-04-14T06:15:14.593Z,1008.34
2018-04-14T06:16:14.571Z,1008.37
2018-04-14T06:17:14.581Z,1008.37
2018-04-14T06:18:14.543Z,1008.42
2018-04-14T06:19:14.533Z,1008.37
2018-04-14T06:20:14.519Z,1008.32
2018-04-14T06:21:14.507Z,1008.33
2018-04-14T06:22:14.584Z,1008.33
2018-04-14T06:23:14.498Z,1008.40
2018-04-14T06:24:14.468Z,1008.40
2018-04-14T06:25:14.458Z,1008.41
2018-04-14T06:26:14.440Z,1008.41
2018-04-14T06:27:14.429Z,1008.42
2018-04-14T06:28:14.457Z,1008.44
2018-04-14T06:29:14.424Z,1008.47
2018-04-14T06:30:14.389Z,1008.45
2018-04-14T06:31:14.376Z,1008.48
2018-04-14T06:32:14.363Z,1008.50
2018-04-14T06:33:14.352Z,1008.49
2018-04-14T06:34:14.361Z,1008.49
2018-04-14T06:35:14.324Z,1008.48
2018-04-14T06:36:14.315Z,1008.50
2018-04-14T06:37:14.300Z,1008.49
2018-04-14T06:38:14.286Z,1008.46
2018-04-14T06:39:14.273Z,1008.46
2018-04-14T06:40:14.276Z,1008.45
2018-04-14T06:41:14.249Z,1008.45
2018-04-14T06:42:14.236Z,1008.45
2018-04-14T06:43:14.221Z,1008.46
2018-04-14T06:44:14.211Z,1008.53
2018-04-14T06:45:14.195Z,1008.53
2018-04-14T06:46:14.202Z,1008.58
2018-04-14T06:47:14.170Z,1008.60
2018-04-14T06:48:14.157Z,1008.60
2018-04-14T06:49:14.147Z,1008.58
2018-04-14T06:50:14.184Z,1008.59
2018-04-14T06:51:14.118Z,1008.63
2018-04-14T06:52:14.129Z,1008.63
2018-04-14T06:53:14.093Z,1008.61
2018-04-14T06:54:14.079Z,1008.58
2018-04-14T06:55:14.067Z,1008.61
2018-04-14T06:56:14.054Z,1008.60
2018-04-14T06:57:14.040Z,1008.61
2018-04-14T06:58:14.044Z,1008.64
2018-04-14T06:59:14.016Z,1008.62
2018-04-14T07:00:14.003Z,1008.63
2018-04-14T07:01:13.990Z,1008.63
2018-04-14T07:02:13.977Z,1008.64
2018-04-14T07:03:13.963Z,1008.64
2018-04-14T07:04:13.984Z,1008.66
2018-04-14T07:05:13.939Z,1008.67
2018-04-14T07:06:13.925Z,1008.67
2018-04-14T07:07:13.917Z,1008.67
2018-04-14T07:08:13.898Z,1008.68
2018-04-14T07:09:13.885Z,1008.67
2018-04-14T07:10:13.912Z,1008.68
2018-04-14T07:11:13.859Z,1008.69
2018-04-14T07:12:13.846Z,1008.68
2018-04-14T07:13:13.835Z,1008.72
2018-04-14T07:14:13.819Z,1008.72
2018-04-14T07:15:13.807Z,1008.75
2018-04-14T07:16:13.831Z,1008.75
2018-04-14T07:17:13.783Z,1008.76
2018-04-14T07:18:13.767Z,1008.77
2018-04-14T07:19:13.755Z,1008.77
2018-04-14T07:20:13.741Z,1008.81
2018-04-14T07:21:13.730Z,1008.83
2018-04-14T07:22:13.752Z,1008.84
2018-04-14T07:23:13.702Z,1008.83
2018-04-14T07:24:13.690Z,1008.89
2018-04-14T07:25:13.684Z,1008.89
2018-04-14T07:26:13.662Z,1008.87
2018-04-14T07:27:13.651Z,1008.88
2018-04-14T07:28:13.676Z,1008.90
2018-04-14T07:29:13.623Z,1008.91
2018-04-14T07:30:13.612Z,1008.97
2018-04-14T07:31:13.600Z,1008.96
2018-04-14T07:32:13.585Z,1008.97
2018-04-14T07:33:13.573Z,1008.97
2018-04-14T07:34:13.576Z,1008.99
2018-04-14T07:35:13.545Z,1008.99
2018-04-14T07:36:13.533Z,1009.00
2018-04-14T07:37:13.524Z,1009.00
2018-04-14T07:38:13.507Z,1008.97
2018-04-14T07:39:13.494Z,1009.03
2018-04-14T07:40:13.501Z,1009.01
2018-04-14T07:41:13.468Z,1008.99
2018-04-14T07:42:13.455Z,1008.99
2018-04-14T07:43:13.441Z,1008.99
2018-04-14T07:44:13.428Z,1009.01
2018-04-14T07:45:13.415Z,1008.98
2018-04-14T07:46:13.419Z,1009.01
2018-04-14T07:47:13.392Z,1009.05
2018-04-14T07:48:13.375Z,1009.03
2018-04-14T07:49:13.363Z,1009.06
2018-04-14T07:50:13.349Z,1009.07
2018-04-14T07:51:13.335Z,1009.03
2018-04-14T07:52:13.342Z,1009.05
2018-04-14T07:53:13.317Z,1009.05
2018-04-14T07:54:13.295Z,1009.02
2018-04-14T07:55:13.282Z,1009.04
2018-04-14T07:56:13.271Z,1009.07
2018-04-14T07:57:13.259Z,1009.09
2018-04-14T07:58:13.262Z,1009.09
2018-04-14T07:59:13.232Z,1009.09
2018-04-14T08:00:13.219Z,1009.11
2018-04-14T08:01:13.205Z,1009.08
2018-04-14T08:02:13.199Z,1009.14
2018-04-14T08:03:13.178Z,1009.16
2018-04-14T08:04:13.182Z,1009.16
2018-04-14T08:05:13.153Z,1009.20
2018-04-14T08:06:13.210Z,1009.18
2018-04-14T08:07:13.127Z,1009.18
2018-04-14T08:08:13.121Z,1009.17
2018-04-14T08:09:13.102Z,1009.14
2018-04-14T08:10:13.107Z,1009.13
2018-04-14T08:11:13.076Z,1009.12
2018-04-14T08:12:13.065Z,1009.14
2018-04-14T08:13:13.054Z,1009.15
2018-04-14T08:14:13.035Z,1009.19
2018-04-14T08:15:13.023Z,1009.21
2018-04-14T08:16:13.029Z,1009.20
2018-04-14T08:17:12.996Z,1009.20
2018-04-14T08:18:12.985Z,1009.18
2018-04-14T08:19:12.968Z,1009.19
2018-04-14T08:20:12.960Z,1009.19
2018-04-14T08:21:12.947Z,1009.20
2018-04-14T08:22:12.944Z,1009.18
2018-04-14T08:23:12.918Z,1009.18
2018-04-14T08:24:12.906Z,1009.16
2018-04-14T08:25:12.892Z,1009.12
2018-04-14T08:26:12.880Z,1009.13
2018-04-14T08:27:12.882Z,1009.18
2018-04-14T08:28:12.854Z,1009.17
2018-04-14T08:29:12.841Z,1009.19
2018-04-14T08:30:12.824Z,1009.19
2018-04-14T08:31:12.814Z,1009.24
2018-04-14T08:32:12.798Z,1009.27
2018-04-14T08:33:12.805Z,1009.30
2018-04-14T08:34:12.773Z,1009.28
2018-04-14T08:35:12.759Z,1009.29
2018-04-14T08:36:12.751Z,1009.26
2018-04-14T08:37:12.740Z,1009.30
2018-04-14T08:38:12.722Z,1009.28
2018-04-14T08:39:12.717Z,1009.29
2018-04-14T08:40:12.694Z,1009.28
2018-04-14T08:41:12.681Z,1009.26
2018-04-14T08:42:12.667Z,1009.22
2018-04-14T08:43:12.657Z,1009.28
2018-04-14T08:44:12.662Z,1009.24
2018-04-14T08:45:12.628Z,1009.20
2018-04-14T08:46:12.614Z,1009.22
2018-04-14T08:47:12.603Z,1009.22
2018-04-14T08:48:12.590Z,1009.21
2018-04-14T08:49:12.578Z,1009.23
2018-04-14T08:50:12.580Z,1009.19
2018-04-14T08:51:12.550Z,1009.20
2018-04-14T08:52:12.537Z,1009.20
2018-04-14T08:53:12.525Z,1009.19
2018-04-14T08:54:12.510Z,1009.23
2018-04-14T08:55:12.496Z,1009.23
2018-04-14T08:56:12.548Z,1009.24
2018-04-14T08:57:12.491Z,1009.25
2018-04-14T08:58:12.497Z,1009.27
2018-04-14T08:59:12.474Z,1009.28
2018-04-14T09:00:12.466Z,1009.35
2018-04-14T09:01:12.539Z,1009.33
2018-04-14T09:02:12.432Z,1009.33
2018-04-14T09:03:12.443Z,1009.32
2018-04-14T09:04:12.401Z,1009.36
2018-04-14T09:05:12.394Z,1009.35
2018-04-14T09:06:12.379Z,1009.38
2018-04-14T09:07:12.395Z,1009.35
2018-04-14T09:08:12.339Z,1009.35
2018-04-14T09:09:12.314Z,1009.36
2018-04-14T09:10:12.301Z,1009.36
2018-04-14T09:11:12.287Z,1009.34
2018-04-14T09:12:12.276Z,1009.31
2018-04-14T09:13:12.272Z,1009.34
2018-04-14T09:14:12.252Z,1009.33
2018-04-14T09:15:12.283Z,1009.39
2018-04-14T09:16:12.222Z,1009.35
2018-04-14T09:17:12.216Z,1009.35
2018-04-14T09:18:12.214Z,1009.33
2018-04-14T09:19:12.185Z,1009.35
2018-04-14T09:20:12.182Z,1009.37
2018-04-14T09:21:12.187Z,1009.34
2018-04-14T09:22:12.155Z,1009.35
2018-04-14T09:23:12.175Z,1009.30
2018-04-14T09:24:12.151Z,1009.31
2018-04-14T09:25:12.119Z,1009.34
2018-04-14T09:26:12.126Z,1009.34
2018-04-14T09:27:12.076Z,1009.34
2018-04-14T09:28:12.133Z,1009.36
2018-04-14T09:29:12.133Z,1009.32
2018-04-14T09:30:12.088Z,1009.32
2018-04-14T09:31:12.065Z,1009.35
2018-04-14T09:32:12.042Z,1009.32
2018-04-14T09:33:12.023Z,1009.26
2018-04-14T09:34:11.998Z,1009.30
2018-04-14T09:35:11.988Z,1009.27
2018-04-14T09:36:12.037Z,1009.27
2018-04-14T09:37:11.950Z,1009.25
2018-04-14T09:38:11.936Z,1009.27
2018-04-14T09:39:11.926Z,1009.28
2018-04-14T09:40:11.923Z,1009.27
2018-04-14T09:41:11.899Z,1009.28
2018-04-14T09:42:11.886Z,1009.27
2018-04-14T09:43:11.871Z,1009.30
2018-04-14T09:44:11.859Z,1009.30
2018-04-14T09:45:11.867Z,1009.27
2018-04-14T09:46:11.833Z,1009.23
2018-04-14T09:47:11.822Z,1009.26
2018-04-14T09:48:11.810Z,1009.25
2018-04-14T09:49:11.793Z,1009.28
2018-04-14T09:50:11.781Z,1009.27
2018-04-14T09:51:11.779Z,1009.28
2018-04-14T09:52:11.755Z,1009.28
2018-04-14T09:53:11.743Z,1009.26
2018-04-14T09:54:11.730Z,1009.24
2018-04-14T09:55:11.721Z,1009.21
2018-04-14T09:56:11.720Z,1009.25
2018-04-14T09:57:11.698Z,1009.25
2018-04-14T09:58:11.675Z,1009.24
2018-04-14T09:59:11.673Z,1009.26
2018-04-14T10:00:11.654Z,1009.25
2018-04-14T10:01:11.649Z,1009.25
2018-04-14T10:02:11.624Z,1009.28
2018-04-14T10:03:11.613Z,1009.24
2018-04-14T10:04:11.599Z,1009.23
2018-04-14T10:05:11.585Z,1009.24
2018-04-14T10:06:11.590Z,1009.25
2018-04-14T10:07:11.560Z,1009.26
2018-04-14T10:08:11.548Z,1009.22
2018-04-14T10:09:11.534Z,1009.19
2018-04-14T10:10:11.523Z,1009.15
2018-04-14T10:11:11.508Z,1009.13
2018-04-14T10:12:11.507Z,1009.16
2018-04-14T10:13:11.483Z,1009.09
2018-04-14T10:14:11.468Z,1009.09
2018-04-14T10:15:11.456Z,1009.07
2018-04-14T10:16:11.468Z,1009.08
2018-04-14T10:17:11.443Z,1009.05
2018-04-14T10:18:11.416Z,1009.01
2018-04-14T10:19:11.402Z,1009.01
2018-04-14T10:20:11.391Z,1009.02
2018-04-14T10:21:11.379Z,1009.00
2018-04-14T10:22:11.376Z,1009.02
2018-04-14T10:23:11.354Z,1008.98
2018-04-14T10:24:11.337Z,1009.01
2018-04-14T10:25:11.326Z,1008.96
2018-04-14T10:26:11.313Z,1009.01
2018-04-14T10:27:11.308Z,1008.98
2018-04-14T10:28:11.287Z,1008.95
2018-04-14T10:29:11.275Z,1008.94
2018-04-14T10:30:11.261Z,1008.93
2018-04-14T10:31:11.247Z,1008.93
2018-04-14T10:32:11.258Z,1008.94
2018-04-14T10:33:11.222Z,1008.92
2018-04-14T10:34:11.211Z,1008.88
2018-04-14T10:35:11.195Z,1008.90
2018-04-14T10:36:11.183Z,1008.85
2018-04-14T10:37:11.168Z,1008.86
2018-04-14T10:38:11.218Z,1008.87
2018-04-14T10:39:11.143Z,1008.88
2018-04-14T10:40:11.131Z,1008.88
2018-04-14T10:41:11.118Z,1008.86
2018-04-14T10:42:11.104Z,1008.89
2018-04-14T10:43:11.103Z,1008.92
2018-04-14T10:44:11.081Z,1008.89
2018-04-14T10:45:11.066Z,1008.87
2018-04-14T10:46:11.055Z,1008.83
2018-04-14T10:47:11.040Z,1008.85
2018-04-14T10:48:11.038Z,1008.81
2018-04-14T10:49:11.015Z,1008.76
2018-04-14T10:50:11.026Z,1008.78
2018-04-14T10:51:10.989Z,1008.77
2018-04-14T10:52:10.977Z,1008.76
2018-04-14T10:53:10.981Z,1008.76
2018-04-14T10:54:10.949Z,1008.75
2018-04-14T10:55:10.936Z,1008.72
2018-04-14T10:56:10.924Z,1008.72
2018-04-14T10:57:10.914Z,1008.72
2018-04-14T10:58:10.906Z,1008.71
2018-04-14T10:59:10.901Z,1008.70
2018-04-14T11:00:10.874Z,1008.74
2018-04-14T11:01:10.861Z,1008.76
2018-04-14T11:02:10.844Z,1008.74
2018-04-14T11:03:10.834Z,1008.76
2018-04-14T11:04:10.832Z,1008.74
2018-04-14T11:05:10.810Z,1008.73
2018-04-14T11:06:10.795Z,1008.72
2018-04-14T11:07:10.781Z,1008.72
2018-04-14T11:08:10.768Z,1008.72
2018-04-14T11:09:10.768Z,1008.70
2018-04-14T11:10:10.742Z,1008.69
2018-04-14T11:11:10.729Z,1008.69
2018-04-14T11:12:10.719Z,1008.69
2018-04-14T11:13:10.705Z,1008.70
2018-04-14T11:14:10.705Z,1008.67
2018-04-14T11:15:10.677Z,1008.70
2018-04-14T11:16:10.664Z,1008.72
2018-04-14T11:17:10.653Z,1008.70
2018-04-14T11:18:10.639Z,1008.70
2018-04-14T11:19:10.625Z,1008.68
2018-04-14T11:20:10.628Z,1008.66
2018-04-14T11:21:10.602Z,1008.67
2018-04-14T11:22:10.588Z,1008.71
2018-04-14T11:23:10.573Z,1008.72
2018-04-14T11:24:10.562Z,1008.75
2018-04-14T11:25:10.559Z,1008.73
2018-04-14T11:26:10.535Z,1008.74
2018-04-14T11:27:10.524Z,1008.73
2018-04-14T11:28:10.511Z,1008.73
2018-04-14T11:29:10.497Z,1008.70
2018-04-14T11:30:10.495Z,1008.68
2018-04-14T11:31:10.521Z,1008.68
2018-04-14T11:32:10.458Z,1008.67
2018-04-14T11:33:10.446Z,1008.71
2018-04-14T11:34:10.432Z,1008.71
2018-04-14T11:35:10.433Z,1008.72
2018-04-14T11:36:10.407Z,1008.70
2018-04-14T11:37:10.393Z,1008.68
2018-04-14T11:38:10.379Z,1008.68
2018-04-14T11:39:10.367Z,1008.65
2018-04-14T11:40:10.367Z,1008.68
2018-04-14T11:41:10.341Z,1008.66
2018-04-14T11:42:10.327Z,1008.62
2018-04-14T11:43:10.316Z,1008.65
2018-04-14T11:44:10.300Z,1008.65
2018-04-14T11:45:10.290Z,1008.69
2018-04-14T11:46:10.286Z,1008.73
2018-04-14T11:47:10.267Z,1008.68
2018-04-14T11:48:10.249Z,1008.76
2018-04-14T11:49:10.236Z,1008.77
2018-04-14T11:50:10.223Z,1008.81
2018-04-14T11:51:10.221Z,1008.81
2018-04-14T11:52:10.203Z,1008.81
2018-04-14T11:53:10.185Z,1008.82
2018-04-14T11:54:10.171Z,1008.81
2018-04-14T11:55:10.157Z,1008.79
2018-04-14T11:56:10.157Z,1008.78
2018-04-14T11:57:10.133Z,1008.81
2018-04-14T11:58:10.121Z,1008.76
2018-04-14T11:59:10.107Z,1008.79
2018-04-14T12:00:10.095Z,1008.81
2018-04-14T12:01:10.360Z,1008.79
2018-04-14T12:02:10.067Z,1008.78
2018-04-14T12:03:10.055Z,1008.72
2018-04-14T12:04:10.043Z,1008.79
2018-04-14T12:05:10.029Z,1008.76